< < Back
Terminal Aerodrome Forecast


Current Version              Previous Versions:   1  2  3  4  5  6  7  8  9  

Terminal Aerodrome Forecast

271
FTUS44 KBMX 071248 AAB
TAFTCL
TAF AMD
KTCL 071248Z 0713/0812 00000KT 5SM BR SCT007
     FM071330 22007KT P6SM BKN007 OVC025
     FM071500 21007KT P6SM SCT040 SCT250
     FM080100 00000KT P6SM SCT250=



Latest METAR

096
SAUS70 KWBC 071500 RRI
MTRTCL
METAR KTCL 071453Z 22006KT 7SM OVC010 27/24 A3016 RMK AO2 SLP210
T02670239 51007


USA.gov is the U.S. government's official web portal to all federal, state and local government web resources and services.